Time;durP1;ratioP1;P1;durP2;ratioP2;P2;SDS_P1;SDS_P2;PMS_P1;PMS_P2;Temp;Humidity;BMP_temperature;BMP_pressure;BME280_temperature;BME280_humidity;BME280_pressure;Samples;Min_cycle;Max_cycle;Signal;HPM_P1;HPM_P2
2021/12/30 00:00:23;;;;;;;0.40;0.40;;;13.60;1.00;;;;;;5049004;28;20503;-84
2021/12/30 00:02:52;;;;;;;0.60;0.40;;;13.60;1.00;;;;;;5050009;28;20478;-84
2021/12/30 00:05:21;;;;;;;0.37;0.37;;;13.60;1.00;;;;;;5065610;28;20456;-84
2021/12/30 00:07:50;;;;;;;0.50;0.50;;;13.60;99.90;;;;;;5065259;28;20464;-83
2021/12/30 00:10:18;;;;;;;0.40;0.40;;;13.60;99.90;;;;;;5053728;28;20485;-83
2021/12/30 00:12:47;;;;;;;0.40;0.40;;;13.60;99.90;;;;;;5059099;28;20491;-84
2021/12/30 00:15:15;;;;;;;0.40;0.40;;;13.60;99.90;;;;;;5044849;28;20463;-83
2021/12/30 00:17:43;;;;;;;0.80;0.50;;;13.60;99.90;;;;;;5050137;28;20458;-84
2021/12/30 00:20:13;;;;;;;0.60;0.60;;;13.60;99.90;;;;;;5060303;28;20479;-84
2021/12/30 00:22:43;;;;;;;0.43;0.43;;;13.60;99.90;;;;;;5064886;28;20569;-84
2021/12/30 00:25:12;;;;;;;0.40;0.40;;;13.60;99.90;;;;;;5065169;28;20966;-84
2021/12/30 00:27:40;;;;;;;0.63;0.40;;;13.70;99.90;;;;;;5064561;28;20469;-83
2021/12/30 00:30:11;;;;;;;0.47;0.43;;;13.70;5.40;;;;;;5051021;28;20458;-83
2021/12/30 00:32:40;;;;;;;0.70;0.50;;;13.70;1.00;;;;;;5064936;28;20524;-83
2021/12/30 00:35:10;;;;;;;3.00;0.60;;;13.70;1.00;;;;;;5073947;28;21084;-83
2021/12/30 00:37:39;;;;;;;0.40;0.40;;;13.70;99.90;;;;;;5044103;28;20963;-83
2021/12/30 00:40:10;;;;;;;0.50;0.50;;;13.70;99.90;;;;;;5044228;28;20466;-83
2021/12/30 00:42:38;;;;;;;3.90;0.60;;;13.80;99.90;;;;;;5044443;28;20456;-83
2021/12/30 00:45:07;;;;;;;0.40;0.40;;;13.70;99.90;;;;;;5043405;28;20461;-83
2021/12/30 00:47:36;;;;;;;1.10;0.93;;;13.80;1.00;;;;;;5044462;28;20975;-85
2021/12/30 00:50:05;;;;;;;0.50;0.40;;;13.80;24.30;;;;;;5043491;28;20471;-84
2021/12/30 00:52:34;;;;;;;0.93;0.40;;;13.80;1.00;;;;;;5045245;28;20929;-83
2021/12/30 00:55:02;;;;;;;0.50;0.50;;;13.80;99.90;;;;;;5063331;28;21002;-83
2021/12/30 00:57:32;;;;;;;0.40;0.40;;;13.70;99.90;;;;;;5064476;28;20463;-83
2021/12/30 01:00:00;;;;;;;0.37;0.37;;;13.70;99.90;;;;;;5064291;28;20455;-84
2021/12/30 01:02:28;;;;;;;0.50;0.50;;;13.70;99.90;;;;;;5061855;28;20485;-83
2021/12/30 01:04:56;;;;;;;2.30;0.40;;;13.70;1.00;;;;;;5046675;28;21022;-83
2021/12/30 01:07:25;;;;;;;0.47;0.47;;;13.70;1.00;;;;;;5045049;28;20459;-84
2021/12/30 01:09:53;;;;;;;1.60;0.50;;;13.70;99.90;;;;;;5044782;28;20451;-84
2021/12/30 01:12:22;;;;;;;0.63;0.40;;;13.70;69.50;;;;;;5060495;28;20507;-84
2021/12/30 01:14:52;;;;;;;0.40;0.40;;;13.70;1.00;;;;;;5064039;28;20529;-84
2021/12/30 01:17:25;;;;;;;0.70;0.50;;;13.70;99.90;;;;;;5049543;28;20456;-84
2021/12/30 01:19:54;;;;;;;0.50;0.50;;;13.70;1.00;;;;;;5042472;28;20468;-84
2021/12/30 01:22:24;;;;;;;0.60;0.60;;;13.70;99.90;;;;;;5042809;28;20477;-83
2021/12/30 01:24:57;;;;;;;0.73;0.73;;;13.70;99.90;;;;;;5044290;28;20448;-84
2021/12/30 01:27:25;;;;;;;0.70;0.60;;;13.70;99.90;;;;;;5052027;28;21048;-84
2021/12/30 01:29:55;;;;;;;0.53;0.47;;;13.70;1.00;;;;;;5052200;28;21230;-83
2021/12/30 01:32:24;;;;;;;0.60;0.50;;;13.70;99.90;;;;;;5049892;28;20501;-83
2021/12/30 01:34:52;;;;;;;0.50;0.50;;;13.70;1.00;;;;;;5063556;28;20453;-85
2021/12/30 01:37:22;;;;;;;0.40;0.40;;;13.70;99.90;;;;;;5063130;28;20446;-83
2021/12/30 01:39:53;;;;;;;0.80;0.50;;;13.70;1.00;;;;;;5044756;28;21261;-84
2021/12/30 01:42:21;;;;;;;0.67;0.50;;;13.70;99.90;;;;;;5050407;28;20505;-83
2021/12/30 01:44:49;;;;;;;1.27;0.40;;;13.70;1.00;;;;;;5046222;28;20455;-83
2021/12/30 01:47:19;;;;;;;0.40;0.40;;;13.70;99.90;;;;;;5052525;28;21126;-84
2021/12/30 01:49:47;;;;;;;0.50;0.50;;;13.70;99.90;;;;;;5044142;28;20550;-84
2021/12/30 01:52:15;;;;;;;0.50;0.50;;;13.70;1.00;;;;;;5047798;28;20478;-85
2021/12/30 01:54:43;;;;;;;0.60;0.43;;;13.70;99.90;;;;;;5042426;28;20446;-83
2021/12/30 01:57:12;;;;;;;0.40;0.40;;;13.70;1.00;;;;;;5051834;28;20456;-84
2021/12/30 01:59:40;;;;;;;0.60;0.57;;;13.70;99.90;;;;;;5049410;28;20462;-84
2021/12/30 02:02:09;;;;;;;1.23;0.43;;;13.70;99.90;;;;;;5042749;28;21000;-83
2021/12/30 02:04:39;;;;;;;0.40;0.40;;;13.70;1.00;;;;;;5047211;28;20593;-84
2021/12/30 02:07:08;;;;;;;0.70;0.50;;;13.70;99.90;;;;;;5047707;28;20457;-83
2021/12/30 02:09:37;;;;;;;0.50;0.40;;;13.70;1.00;;;;;;5047860;28;20531;-84
2021/12/30 02:12:06;;;;;;;0.77;0.67;;;13.70;1.00;;;;;;5044619;28;20558;-83
2021/12/30 02:14:35;;;;;;;1.27;0.50;;;13.70;1.00;;;;;;5046821;28;20873;-84
2021/12/30 02:17:04;;;;;;;0.50;0.50;;;13.70;99.90;;;;;;5045670;28;20852;-84
2021/12/30 02:19:33;;;;;;;0.40;0.40;;;13.70;99.90;;;;;;5045788;28;20539;-84
2021/12/30 02:22:03;;;;;;;3.20;0.40;;;13.80;8.30;;;;;;5044997;28;20471;-83
2021/12/30 02:24:32;;;;;;;0.70;0.60;;;13.80;1.00;;;;;;5056206;28;20460;-83
2021/12/30 02:27:00;;;;;;;1.57;0.60;;;13.70;1.00;;;;;;5051042;28;20493;-84
2021/12/30 02:29:28;;;;;;;0.57;0.57;;;13.70;1.00;;;;;;5046496;28;20456;-84
2021/12/30 02:31:56;;;;;;;2.60;0.70;;;13.70;1.00;;;;;;5042674;28;20487;-84
2021/12/30 02:34:24;;;;;;;0.63;0.60;;;13.70;99.90;;;;;;5050649;28;20521;-83
2021/12/30 02:36:52;;;;;;;0.70;0.50;;;13.70;99.90;;;;;;5053396;28;20459;-84
2021/12/30 02:39:23;;;;;;;1.63;0.67;;;13.80;1.00;;;;;;5046478;28;20468;-85
2021/12/30 02:41:52;;;;;;;0.47;0.47;;;13.80;1.00;;;;;;5042877;28;20506;-83
2021/12/30 02:44:21;;;;;;;0.90;0.73;;;13.80;1.00;;;;;;5044434;28;21270;-83
2021/12/30 02:46:51;;;;;;;1.10;0.50;;;13.80;1.00;;;;;;5048293;28;20459;-83
2021/12/30 02:49:21;;;;;;;0.50;0.50;;;13.80;99.90;;;;;;5044607;28;20461;-84
2021/12/30 02:51:50;;;;;;;0.50;0.50;;;13.90;1.00;;;;;;5045049;28;20483;-84
2021/12/30 02:54:18;;;;;;;1.53;0.50;;;13.90;99.90;;;;;;5044155;28;20565;-83
2021/12/30 02:56:48;;;;;;;0.70;0.63;;;13.70;1.00;;;;;;5046667;28;20455;-83
2021/12/30 02:59:18;;;;;;;0.57;0.57;;;13.70;1.00;;;;;;5059173;28;21056;-82
2021/12/30 03:01:49;;;;;;;1.20;0.53;;;13.70;99.90;;;;;;5051185;28;20481;-84
2021/12/30 03:04:18;;;;;;;0.40;0.40;;;13.70;1.00;;;;;;5065516;28;20455;-83
2021/12/30 03:06:46;;;;;;;0.60;0.60;;;13.60;1.00;;;;;;5062982;28;20458;-84
2021/12/30 03:09:14;;;;;;;2.10;0.53;;;13.60;99.90;;;;;;5052105;28;20453;-83
2021/12/30 03:11:43;;;;;;;0.40;0.40;;;13.70;1.00;;;;;;5065577;28;20478;-83
2021/12/30 03:14:12;;;;;;;0.50;0.50;;;13.60;22.70;;;;;;5052966;28;20479;-84
2021/12/30 03:16:42;;;;;;;0.53;0.53;;;13.70;99.90;;;;;;5054030;28;20467;-83
2021/12/30 03:19:10;;;;;;;0.40;0.40;;;13.60;1.00;;;;;;5066426;28;20466;-83
2021/12/30 03:21:40;;;;;;;0.60;0.60;;;13.60;99.90;;;;;;5045155;28;20999;-83
2021/12/30 03:24:08;;;;;;;0.40;0.40;;;13.60;1.00;;;;;;5046667;28;20520;-83
2021/12/30 03:26:36;;;;;;;0.50;0.50;;;13.60;1.00;;;;;;5050435;28;20469;-84
2021/12/30 03:29:05;;;;;;;1.33;0.60;;;13.70;1.00;;;;;;5055365;28;20538;-84
2021/12/30 03:31:35;;;;;;;0.83;0.50;;;13.70;99.90;;;;;;5059787;28;20648;-84
2021/12/30 03:34:04;;;;;;;0.50;0.50;;;13.60;1.00;;;;;;5054358;28;20582;-84
2021/12/30 03:36:33;;;;;;;0.50;0.50;;;13.70;1.00;;;;;;5047298;28;20453;-82
2021/12/30 03:39:01;;;;;;;0.50;0.50;;;13.70;99.90;;;;;;5049069;28;20487;-83
2021/12/30 03:41:30;;;;;;;0.70;0.70;;;13.60;1.00;;;;;;5049022;28;20994;-84
2021/12/30 03:44:01;;;;;;;0.60;0.57;;;13.60;1.00;;;;;;5053201;28;20471;-82
2021/12/30 03:46:31;;;;;;;0.60;0.60;;;13.60;99.90;;;;;;5049789;28;20464;-84
2021/12/30 03:49:01;;;;;;;0.63;0.50;;;13.50;1.00;;;;;;5057832;28;20484;-83
2021/12/30 03:51:30;;;;;;;0.97;0.60;;;13.50;1.00;;;;;;5051430;28;20471;-83
2021/12/30 03:53:59;;;;;;;0.50;0.50;;;13.50;1.00;;;;;;5048014;28;20481;-84
2021/12/30 03:56:29;;;;;;;0.40;0.40;;;13.60;99.90;;;;;;5047770;28;20455;-83
2021/12/30 03:58:59;;;;;;;0.50;0.50;;;13.50;1.00;;;;;;5056805;28;20456;-83
2021/12/30 04:01:30;;;;;;;1.33;0.80;;;13.50;1.00;;;;;;5052614;28;20915;-83
2021/12/30 04:03:59;;;;;;;0.50;0.50;;;13.50;1.00;;;;;;5049200;28;20448;-83
2021/12/30 04:06:28;;;;;;;0.53;0.53;;;13.50;1.00;;;;;;5045764;28;20840;-84
2021/12/30 04:08:57;;;;;;;0.40;0.40;;;13.50;1.00;;;;;;5049465;28;20983;-83
2021/12/30 04:11:33;;;;;;;1.00;0.40;;;13.50;1.00;;;;;;5050469;28;20478;-83
2021/12/30 04:14:02;;;;;;;0.50;0.50;;;13.50;52.80;;;;;;5047209;28;20485;-83
2021/12/30 04:16:30;;;;;;;0.80;0.40;;;13.00;99.90;;;;;;5047253;28;20551;-83
2021/12/30 04:18:58;;;;;;;2.00;0.57;;;13.40;99.90;;;;;;5045771;28;20456;-81
2021/12/30 04:21:28;;;;;;;0.70;0.50;;;13.40;99.90;;;;;;5045854;28;20480;-82
2021/12/30 04:23:56;;;;;;;0.43;0.43;;;13.30;1.00;;;;;;5047721;28;20455;-83
2021/12/30 04:26:28;;;;;;;1.47;0.57;;;13.40;99.90;;;;;;5046962;28;20489;-84
2021/12/30 04:28:57;;;;;;;0.57;0.50;;;13.30;1.00;;;;;;5053076;28;21363;-84
2021/12/30 04:31:25;;;;;;;1.03;0.40;;;13.40;1.00;;;;;;5045706;28;20566;-83
2021/12/30 04:33:54;;;;;;;0.60;0.40;;;13.40;1.00;;;;;;5052268;28;20480;-84
2021/12/30 04:36:22;;;;;;;0.50;0.40;;;13.50;1.00;;;;;;5052893;28;20467;-83
2021/12/30 04:38:52;;;;;;;2.30;0.50;;;13.30;1.00;;;;;;5046068;28;20476;-83
2021/12/30 04:41:20;;;;;;;0.90;0.40;;;13.20;1.00;;;;;;5046064;28;20545;-84
2021/12/30 04:43:48;;;;;;;0.43;0.40;;;13.30;1.00;;;;;;5048268;28;20466;-83
2021/12/30 04:46:16;;;;;;;0.30;0.30;;;13.40;1.00;;;;;;5045334;28;20467;-83
2021/12/30 04:48:44;;;;;;;1.13;0.40;;;13.50;1.00;;;;;;5047827;28;20986;-84
2021/12/30 04:51:13;;;;;;;0.40;0.40;;;13.50;1.00;;;;;;5045937;28;20452;-83
2021/12/30 04:53:41;;;;;;;0.40;0.40;;;13.50;1.00;;;;;;5049772;28;20474;-84
2021/12/30 04:56:11;;;;;;;0.30;0.30;;;13.40;1.00;;;;;;5050256;28;20455;-83
2021/12/30 04:58:39;;;;;;;0.40;0.40;;;13.30;1.00;;;;;;5048905;28;20466;-84
2021/12/30 05:01:07;;;;;;;0.40;0.40;;;13.40;1.00;;;;;;5048662;28;20455;-84
2021/12/30 05:03:36;;;;;;;1.33;0.40;;;13.50;1.00;;;;;;5051899;28;20541;-84
2021/12/30 05:06:04;;;;;;;0.90;0.30;;;13.30;1.00;;;;;;5045946;28;20517;-84
2021/12/30 05:08:33;;;;;;;0.33;0.33;;;13.30;1.00;;;;;;5045951;28;20517;-83
2021/12/30 05:11:01;;;;;;;0.30;0.30;;;13.30;1.00;;;;;;5058298;28;20864;-83
2021/12/30 05:13:31;;;;;;;0.40;0.40;;;13.30;1.00;;;;;;5047896;28;20466;-83
2021/12/30 05:16:00;;;;;;;0.60;0.60;;;13.40;1.00;;;;;;5051973;28;20551;-83
2021/12/30 05:18:32;;;;;;;0.30;0.30;;;13.30;1.00;;;;;;5053231;28;20753;-83
2021/12/30 05:21:02;;;;;;;0.40;0.40;;;13.30;1.00;;;;;;5050034;28;20543;-83
2021/12/30 05:23:31;;;;;;;0.40;0.40;;;13.30;1.00;;;;;;5059435;28;20451;-83
2021/12/30 05:25:59;;;;;;;0.40;0.40;;;13.30;1.00;;;;;;5050218;28;20463;-84
2021/12/30 05:28:28;;;;;;;0.40;0.40;;;13.30;1.00;;;;;;5052605;28;20479;-84
2021/12/30 05:30:57;;;;;;;0.40;0.40;;;13.40;1.00;;;;;;5047595;28;20487;-84
2021/12/30 05:33:26;;;;;;;0.63;0.40;;;13.40;1.00;;;;;;5064157;28;20450;-83
2021/12/30 05:35:54;;;;;;;0.37;0.37;;;13.50;1.00;;;;;;5047409;28;20472;-84
2021/12/30 05:38:22;;;;;;;0.40;0.30;;;13.30;1.00;;;;;;5043816;28;20927;-83
2021/12/30 05:40:51;;;;;;;0.30;0.30;;;13.30;1.00;;;;;;5044115;28;20462;-83
2021/12/30 05:43:19;;;;;;;0.30;0.30;;;13.30;1.00;;;;;;5044296;28;21059;-84
2021/12/30 05:45:47;;;;;;;0.40;0.40;;;13.40;1.00;;;;;;5044282;28;20502;-84
2021/12/30 05:48:17;;;;;;;0.57;0.37;;;13.50;1.00;;;;;;5044953;28;20475;-84
2021/12/30 05:50:45;;;;;;;0.40;0.40;;;13.50;1.00;;;;;;5060089;28;20448;-83
2021/12/30 05:53:13;;;;;;;0.30;0.30;;;13.50;1.00;;;;;;5052956;28;20965;-84
2021/12/30 05:55:42;;;;;;;0.30;0.30;;;13.40;1.00;;;;;;5061167;28;20482;-83
2021/12/30 05:58:10;;;;;;;0.40;0.40;;;13.50;1.00;;;;;;5041730;28;20487;-84
2021/12/30 06:00:38;;;;;;;0.40;0.40;;;13.50;1.00;;;;;;5044100;28;20463;-83
2021/12/30 06:03:07;;;;;;;0.40;0.40;;;13.30;1.00;;;;;;5043698;28;20473;-83
2021/12/30 06:05:37;;;;;;;0.40;0.40;;;13.30;1.00;;;;;;5043126;28;20823;-84
2021/12/30 06:08:05;;;;;;;0.30;0.30;;;13.40;1.00;;;;;;5043337;28;20456;-84
2021/12/30 06:10:34;;;;;;;0.30;0.30;;;13.50;1.00;;;;;;5041660;28;20486;-84
2021/12/30 06:13:02;;;;;;;0.30;0.30;;;13.50;1.00;;;;;;5043405;28;20537;-83
2021/12/30 06:15:30;;;;;;;0.30;0.30;;;13.50;1.00;;;;;;5042314;28;20506;-84
2021/12/30 06:17:58;;;;;;;0.37;0.37;;;13.50;1.00;;;;;;5045732;28;20460;-83
2021/12/30 06:20:28;;;;;;;0.40;0.40;;;13.50;1.00;;;;;;5057163;28;20467;-84
2021/12/30 06:22:57;;;;;;;0.80;0.40;;;13.50;1.00;;;;;;5041860;28;20593;-84
2021/12/30 06:25:26;;;;;;;0.40;0.40;;;13.60;1.00;;;;;;5043186;28;20481;-84
2021/12/30 06:27:57;;;;;;;0.40;0.40;;;13.70;1.00;;;;;;5050941;28;20464;-84
2021/12/30 06:30:25;;;;;;;0.47;0.30;;;13.60;1.00;;;;;;5042686;28;20456;-84
2021/12/30 06:32:53;;;;;;;0.30;0.30;;;13.60;1.00;;;;;;5043251;28;20479;-83
2021/12/30 06:35:22;;;;;;;0.50;0.50;;;13.50;1.00;;;;;;5055040;28;20474;-83
2021/12/30 06:37:51;;;;;;;1.30;0.40;;;13.50;1.00;;;;;;5062466;28;20946;-84
2021/12/30 06:40:20;;;;;;;0.50;0.40;;;13.50;1.00;;;;;;5062820;28;20460;-83
2021/12/30 06:42:48;;;;;;;0.40;0.40;;;13.40;1.00;;;;;;5059208;28;20479;-83
2021/12/30 06:45:17;;;;;;;0.40;0.40;;;13.30;1.00;;;;;;5051869;28;20447;-83
2021/12/30 06:47:45;;;;;;;0.60;0.60;;;13.40;1.00;;;;;;5051252;28;20466;-83
2021/12/30 06:50:14;;;;;;;2.13;0.50;;;13.40;1.00;;;;;;5057493;28;21323;-84
2021/12/30 06:52:46;;;;;;;0.40;0.40;;;13.60;1.00;;;;;;5050478;28;20480;-83
2021/12/30 06:55:14;;;;;;;1.17;0.33;;;13.60;1.00;;;;;;5063646;28;20476;-84
2021/12/30 06:57:44;;;;;;;0.37;0.37;;;13.70;1.00;;;;;;5054828;28;20457;-84
2021/12/30 07:00:14;;;;;;;0.33;0.33;;;13.70;1.00;;;;;;5059842;28;20512;-83
2021/12/30 07:02:43;;;;;;;0.43;0.40;;;13.50;1.00;;;;;;5055738;28;21074;-83
2021/12/30 07:05:13;;;;;;;0.40;0.40;;;13.60;1.00;;;;;;5055030;28;20459;-83
2021/12/30 07:07:41;;;;;;;0.50;0.50;;;13.60;1.00;;;;;;5058888;28;20460;-84
2021/12/30 07:10:11;;;;;;;0.60;0.50;;;13.60;1.00;;;;;;5063812;28;20452;-83
2021/12/30 07:12:39;;;;;;;0.40;0.40;;;13.70;1.00;;;;;;5056613;28;20482;-83
2021/12/30 07:15:09;;;;;;;1.33;0.40;;;13.70;1.00;;;;;;5062070;28;20488;-84
2021/12/30 07:17:37;;;;;;;0.33;0.33;;;13.70;1.00;;;;;;5054657;28;21325;-83
2021/12/30 07:20:07;;;;;;;0.40;0.40;;;13.60;1.00;;;;;;5046859;28;20462;-83
2021/12/30 07:22:35;;;;;;;0.60;0.60;;;13.50;1.00;;;;;;5050896;28;20481;-82
2021/12/30 07:25:16;;;;;;;0.50;0.50;;;13.50;1.00;;;;;;5060989;28;20961;-84
2021/12/30 07:27:45;;;;;;;0.60;0.50;;;13.50;1.00;;;;;;5071033;28;20474;-85
2021/12/30 07:30:16;;;;;;;0.30;0.30;;;13.40;1.00;;;;;;5056504;28;20455;-83
2021/12/30 07:32:44;;;;;;;0.70;0.50;;;13.30;6.30;;;;;;5045042;28;20480;-83
2021/12/30 07:35:12;;;;;;;0.50;0.40;;;13.30;12.60;;;;;;5058024;28;20476;-84
2021/12/30 07:37:41;;;;;;;0.60;0.40;;;13.20;12.60;;;;;;5060037;28;20451;-83
2021/12/30 07:40:10;;;;;;;1.17;0.50;;;13.20;18.40;;;;;;5060341;28;20785;-84
2021/12/30 07:42:38;;;;;;;0.50;0.47;;;13.30;14.20;;;;;;5052962;28;20480;-84
2021/12/30 07:45:09;;;;;;;0.70;0.70;;;13.40;6.80;;;;;;5057831;28;20762;-83
2021/12/30 07:47:38;;;;;;;0.87;0.50;;;13.50;2.50;;;;;;5046194;28;20457;-82
2021/12/30 07:50:08;;;;;;;0.40;0.40;;;13.50;1.00;;;;;;5057039;28;20705;-83
2021/12/30 07:52:36;;;;;;;0.50;0.40;;;13.50;1.00;;;;;;5046293;28;20484;-84
2021/12/30 07:55:06;;;;;;;0.40;0.40;;;13.40;5.10;;;;;;5053182;28;20452;-83
2021/12/30 07:57:35;;;;;;;0.50;0.47;;;13.50;1.00;;;;;;5051610;28;20529;-84
2021/12/30 08:00:07;;;;;;;0.50;0.50;;;13.60;1.00;;;;;;5059332;28;20551;-83
2021/12/30 08:02:35;;;;;;;0.40;0.40;;;13.60;1.00;;;;;;5062818;28;20535;-84
2021/12/30 08:05:06;;;;;;;0.40;0.40;;;13.60;1.00;;;;;;5054369;28;20467;-83
2021/12/30 08:07:34;;;;;;;0.40;0.40;;;13.60;1.00;;;;;;5051363;28;21296;-83
2021/12/30 08:10:02;;;;;;;0.50;0.40;;;13.60;1.00;;;;;;5056772;28;20966;-84
2021/12/30 08:12:30;;;;;;;0.50;0.50;;;13.60;1.00;;;;;;5045241;28;20534;-83
2021/12/30 08:14:58;;;;;;;0.40;0.40;;;13.50;1.00;;;;;;5044621;28;21030;-83
2021/12/30 08:17:27;;;;;;;0.40;0.40;;;13.70;1.00;;;;;;5060628;28;20595;-83
2021/12/30 08:19:55;;;;;;;0.40;0.40;;;13.80;1.00;;;;;;5047116;28;20478;-84
2021/12/30 08:22:24;;;;;;;0.70;0.40;;;13.80;1.00;;;;;;5044885;28;20483;-84
2021/12/30 08:24:52;;;;;;;0.50;0.40;;;13.80;1.00;;;;;;5048087;28;20504;-83
2021/12/30 08:27:21;;;;;;;0.40;0.40;;;13.70;1.00;;;;;;5063838;28;21171;-84
2021/12/30 08:29:49;;;;;;;0.70;0.50;;;13.70;1.00;;;;;;5048043;28;20871;-82
2021/12/30 08:32:18;;;;;;;0.53;0.50;;;13.70;1.00;;;;;;5044933;28;20491;-83
2021/12/30 08:34:47;;;;;;;0.77;0.50;;;13.80;1.00;;;;;;5047314;28;20461;-84
2021/12/30 08:37:16;;;;;;;0.50;0.50;;;13.80;1.00;;;;;;5064951;28;20484;-84
2021/12/30 08:39:45;;;;;;;0.60;0.47;;;13.80;1.00;;;;;;5061634;28;20443;-83
2021/12/30 08:42:19;;;;;;;1.10;0.47;;;13.80;1.00;;;;;;5054628;28;20565;-84
2021/12/30 08:44:47;;;;;;;0.40;0.40;;;13.90;1.00;;;;;;5047522;28;20538;-84
2021/12/30 08:47:16;;;;;;;0.93;0.40;;;13.70;1.00;;;;;;5045018;28;20543;-84
2021/12/30 08:49:46;;;;;;;0.50;0.40;;;13.70;1.00;;;;;;5044144;28;20467;-83
2021/12/30 08:52:15;;;;;;;3.10;0.60;;;13.70;1.00;;;;;;5044580;28;20872;-85
2021/12/30 08:54:47;;;;;;;0.40;0.40;;;13.70;1.00;;;;;;5044275;28;20550;-84
2021/12/30 08:57:17;;;;;;;0.40;0.40;;;13.70;1.00;;;;;;5044261;28;20662;-84
2021/12/30 08:59:45;;;;;;;0.40;0.40;;;13.60;1.00;;;;;;5058183;28;20462;-84
2021/12/30 09:02:14;;;;;;;0.50;0.50;;;13.70;1.00;;;;;;5044702;28;20475;-84
2021/12/30 09:04:45;;;;;;;0.47;0.43;;;13.70;1.00;;;;;;5062910;28;20467;-84
2021/12/30 09:07:15;;;;;;;0.30;0.30;;;13.70;1.00;;;;;;5049660;28;20527;-83
2021/12/30 09:09:46;;;;;;;0.60;0.40;;;13.60;1.00;;;;;;5049685;28;20494;-84
2021/12/30 09:12:18;;;;;;;0.57;0.50;;;13.70;1.00;;;;;;5047531;28;20487;-84
2021/12/30 09:14:52;;;;;;;4.37;0.47;;;13.60;1.00;;;;;;5043827;28;20546;-83
2021/12/30 09:17:20;;;;;;;1.00;0.53;;;13.60;5.20;;;;;;5057631;28;20930;-83
2021/12/30 09:19:49;;;;;;;0.50;0.40;;;13.60;8.60;;;;;;5044069;28;20539;-83
2021/12/30 09:22:17;;;;;;;0.60;0.40;;;13.80;5.50;;;;;;5043448;28;20945;-84
2021/12/30 09:24:47;;;;;;;0.50;0.50;;;13.80;1.00;;;;;;5043950;28;20491;-84
2021/12/30 09:27:15;;;;;;;0.50;0.40;;;13.90;1.00;;;;;;5049557;28;20467;-84
2021/12/30 09:29:43;;;;;;;0.50;0.50;;;13.90;1.00;;;;;;5054840;28;20799;-83
2021/12/30 09:32:11;;;;;;;0.40;0.40;;;14.10;1.00;;;;;;5049514;28;20475;-83
2021/12/30 09:34:39;;;;;;;0.40;0.40;;;14.10;1.00;;;;;;5053066;28;21167;-83
2021/12/30 09:37:10;;;;;;;1.07;0.40;;;14.10;1.00;;;;;;5044792;28;20564;-84
2021/12/30 09:39:40;;;;;;;0.40;0.40;;;14.20;1.00;;;;;;5057162;28;20943;-84
2021/12/30 09:42:10;;;;;;;0.40;0.40;;;14.30;1.00;;;;;;5059951;28;20492;-84
2021/12/30 09:44:38;;;;;;;0.43;0.43;;;14.40;1.00;;;;;;5050452;28;20981;-83
2021/12/30 09:47:06;;;;;;;0.40;0.40;;;14.40;1.00;;;;;;5057444;28;20825;-84
2021/12/30 09:49:35;;;;;;;1.20;0.43;;;14.30;1.00;;;;;;5043708;28;20458;-84
2021/12/30 09:52:04;;;;;;;0.50;0.40;;;14.40;1.00;;;;;;5045224;28;21307;-83
2021/12/30 09:54:32;;;;;;;0.40;0.40;;;14.30;1.00;;;;;;5047002;28;20469;-83
2021/12/30 09:57:00;;;;;;;0.70;0.50;;;14.40;1.00;;;;;;5043804;28;20486;-83
2021/12/30 09:59:31;;;;;;;1.13;0.50;;;14.50;1.00;;;;;;5043402;28;20449;-84
2021/12/30 10:02:00;;;;;;;0.40;0.40;;;14.70;1.00;;;;;;5049748;28;20518;-85
2021/12/30 10:04:31;;;;;;;0.47;0.40;;;14.80;1.00;;;;;;5063904;28;20465;-83
2021/12/30 10:07:00;;;;;;;0.50;0.50;;;14.90;1.00;;;;;;5063496;28;20456;-85
2021/12/30 10:09:39;;;;;;;0.40;0.40;;;15.00;1.00;;;;;;5063580;28;20452;-85
2021/12/30 10:12:08;;;;;;;0.40;0.40;;;14.90;1.00;;;;;;5043873;28;21030;-84
2021/12/30 10:14:39;;;;;;;0.40;0.40;;;14.90;1.00;;;;;;5042915;28;20462;-82
2021/12/30 10:17:15;;;;;;;0.40;0.40;;;15.00;1.00;;;;;;5042924;28;20482;-84
2021/12/30 10:19:44;;;;;;;1.83;0.60;;;15.10;1.00;;;;;;5059466;28;20452;-84
2021/12/30 10:22:14;;;;;;;0.70;0.50;;;15.20;1.00;;;;;;5060966;28;20490;-84
2021/12/30 10:24:42;;;;;;;0.50;0.50;;;15.20;99.90;;;;;;5063304;28;21010;-84
2021/12/30 10:27:22;;;;;;;0.50;0.50;;;15.30;99.90;;;;;;5068873;28;20488;-84
2021/12/30 10:29:51;;;;;;;1.00;0.90;;;15.30;99.90;;;;;;5047141;28;20451;-85
2021/12/30 10:32:23;;;;;;;1.10;0.67;;;15.20;99.90;;;;;;5043546;28;20479;-84
2021/12/30 10:35:09;;;;;;;0.60;0.50;;;15.30;99.90;;;;;;5061849;28;20469;-84
2021/12/30 10:37:39;;;;;;;0.70;0.50;;;15.40;99.90;;;;;;5062678;28;20485;-83
2021/12/30 10:40:26;;;;;;;0.60;0.60;;;15.60;99.90;;;;;;5050380;28;20454;-84
2021/12/30 10:43:13;;;;;;;0.40;0.40;;;15.80;69.00;;;;;;5063056;28;20466;-85
2021/12/30 10:45:43;;;;;;;0.50;0.50;;;15.90;1.00;;;;;;5062897;28;20990;-83
2021/12/30 10:48:11;;;;;;;0.80;0.50;;;16.10;1.00;;;;;;5043315;28;20456;-84
2021/12/30 10:50:40;;;;;;;0.40;0.40;;;16.20;1.00;;;;;;5043448;28;20707;-84
2021/12/30 10:53:08;;;;;;;0.40;0.40;;;16.30;99.90;;;;;;5042009;28;20472;-83
2021/12/30 10:55:36;;;;;;;0.40;0.40;;;16.50;99.90;;;;;;5058549;28;20553;-84
2021/12/30 10:58:25;;;;;;;0.37;0.37;;;16.70;1.00;;;;;;5045956;28;21014;-85
2021/12/30 11:01:13;;;;;;;0.43;0.43;;;16.80;1.00;;;;;;5045051;28;20447;-84
2021/12/30 11:03:42;;;;;;;0.40;0.40;;;16.90;1.00;;;;;;5063065;28;20449;-84
2021/12/30 11:06:11;;;;;;;0.37;0.37;;;17.00;99.90;;;;;;5051077;28;20456;-83
2021/12/30 11:08:39;;;;;;;0.40;0.40;;;17.10;99.90;;;;;;5049583;28;20452;-84
2021/12/30 11:11:23;;;;;;;0.40;0.40;;;17.20;1.00;;;;;;5043095;28;20463;-84
2021/12/30 11:14:00;;;;;;;0.40;0.40;;;17.30;16.40;;;;;;5042998;28;20451;-84
2021/12/30 11:16:30;;;;;;;0.30;0.30;;;17.30;1.00;;;;;;5063195;28;20448;-85
2021/12/30 11:18:59;;;;;;;0.33;0.33;;;17.40;1.00;;;;;;5047144;28;20522;-85
2021/12/30 11:21:38;;;;;;;0.40;0.40;;;17.50;99.90;;;;;;5042672;28;20561;-83
2021/12/30 11:24:07;;;;;;;0.40;0.40;;;17.70;99.90;;;;;;5042515;28;20474;-84
2021/12/30 11:26:36;;;;;;;0.30;0.30;;;17.80;1.00;;;;;;5046232;28;20995;-84
2021/12/30 11:29:06;;;;;;;0.30;0.30;;;17.90;1.00;;;;;;5060443;28;20458;-84
2021/12/30 11:31:36;;;;;;;0.93;0.30;;;17.90;1.00;;;;;;5056630;28;20484;-84
2021/12/30 11:34:05;;;;;;;0.40;0.40;;;18.00;1.00;;;;;;5066368;28;20468;-84
2021/12/30 11:36:34;;;;;;;0.40;0.30;;;18.00;1.00;;;;;;5066266;28;20955;-84
2021/12/30 11:39:05;;;;;;;0.30;0.30;;;18.00;99.90;;;;;;5061745;28;20756;-85
2021/12/30 11:41:33;;;;;;;0.30;0.30;;;18.00;99.90;;;;;;5052865;28;20481;-84
2021/12/30 11:44:01;;;;;;;0.40;0.30;;;17.90;99.90;;;;;;5046394;28;20459;-83
2021/12/30 11:46:41;;;;;;;0.30;0.30;;;17.90;99.90;;;;;;5056767;28;20449;-84
2021/12/30 11:49:11;;;;;;;0.30;0.30;;;18.00;99.90;;;;;;5051793;28;20559;-84
2021/12/30 11:51:42;;;;;;;0.37;0.30;;;18.00;99.90;;;;;;5065658;28;20473;-85
2021/12/30 11:54:36;;;;;;;0.40;0.40;;;18.00;99.90;;;;;;5058893;28;20453;-84
2021/12/30 11:57:25;;;;;;;0.30;0.30;;;18.00;99.90;;;;;;5045563;28;20470;-85
2021/12/30 11:59:54;;;;;;;1.13;0.40;;;17.80;99.90;;;;;;5045562;28;20450;-84
2021/12/30 12:02:38;;;;;;;0.30;0.30;;;17.60;99.90;;;;;;5045069;28;20516;-85
2021/12/30 12:05:42;;;;;;;0.37;0.33;;;17.30;1.00;;;;;;5045576;28;21039;-83
2021/12/30 12:08:11;;;;;;;0.70;0.40;;;17.20;99.90;;;;;;5049357;28;20461;-85
2021/12/30 12:10:43;;;;;;;0.40;0.40;;;17.20;92.80;;;;;;5045247;28;20458;-85
2021/12/30 12:13:33;;;;;;;0.40;0.40;;;17.00;99.90;;;;;;5045651;28;20991;-84
2021/12/30 12:16:03;;;;;;;4.53;0.50;;;16.90;1.00;;;;;;5055950;28;20488;-84
2021/12/30 12:18:33;;;;;;;0.30;0.30;;;16.80;1.00;;;;;;5047861;28;20491;-83
2021/12/30 12:21:03;;;;;;;0.40;0.40;;;16.80;1.00;;;;;;5043997;28;20468;-85
2021/12/30 12:23:33;;;;;;;0.40;0.40;;;16.80;1.00;;;;;;5044265;28;21126;-84
2021/12/30 12:26:14;;;;;;;0.40;0.40;;;16.70;1.00;;;;;;5045687;28;20534;-84
2021/12/30 12:28:43;;;;;;;0.40;0.40;;;16.70;53.60;;;;;;5069737;28;20449;-84
2021/12/30 12:31:12;;;;;;;0.37;0.37;;;16.80;1.00;;;;;;5050350;28;20488;-84
2021/12/30 12:33:44;;;;;;;0.63;0.40;;;16.80;1.00;;;;;;5063564;28;20585;-85
2021/12/30 12:36:17;;;;;;;0.43;0.40;;;16.80;1.00;;;;;;5065058;28;20466;-84
2021/12/30 12:38:47;;;;;;;0.40;0.40;;;16.80;1.00;;;;;;5064711;28;20570;-84
2021/12/30 12:41:21;;;;;;;1.47;0.40;;;16.90;1.00;;;;;;5063786;28;20513;-84
2021/12/30 12:43:58;;;;;;;0.40;0.40;;;16.70;1.00;;;;;;5055954;28;20468;-84
2021/12/30 12:46:41;;;;;;;0.40;0.40;;;16.60;1.00;;;;;;5044677;28;20452;-85
2021/12/30 12:49:10;;;;;;;0.67;0.40;;;16.60;1.00;;;;;;5044536;28;20567;-84
2021/12/30 12:51:51;;;;;;;0.40;0.40;;;16.50;99.90;;;;;;5045095;28;20473;-84
2021/12/30 12:54:34;;;;;;;1.17;0.50;;;16.30;1.00;;;;;;5051419;28;20451;-85
2021/12/30 12:57:07;;;;;;;0.40;0.40;;;16.10;99.90;;;;;;5063218;28;20504;-84
2021/12/30 12:59:37;;;;;;;0.50;0.50;;;16.20;99.90;;;;;;5064837;28;20477;-84
2021/12/30 13:02:07;;;;;;;0.63;0.40;;;16.10;99.90;;;;;;5064712;28;20488;-84
2021/12/30 13:04:38;;;;;;;0.50;0.50;;;16.10;99.90;;;;;;5055370;28;20463;-84
2021/12/30 13:07:10;;;;;;;0.50;0.50;;;16.30;52.40;;;;;;5059463;28;20467;-84